Pescal — CUSF — position and weather

sailwx.info

Track history (hours):
 
Tides and Currents Weather Stations Pressure Air Temp Water Temp Dewpoint Dewpoint Depression Visibility Wind Speed Wind Dir Waves Ship Positions

Pescal

Last reported at 2017-Dec-10 21:06 UTC. Time now 2017-Dec-15 00:45 UTC.
Position N 37°57' W 008°52'.

Length 23 m.

MMSI: 263514000.

Date/timePositionNaut miles runAvg speedWind from/ knotsBaromVisibWave heightAir tempDewpointWater temp
2017-Dec-10 21:06N 37°57' W 008°52'0 0.0
2017-Dec-10 21:00N 37°57' W 008°52'0 0.2
2017-Dec-10 20:31N 37°57' W 008°52'0 0.0
2017-Dec-10 20:00N 37°57' W 008°52'0 0.0
2017-Dec-10 19:30N 37°57' W 008°52'0 0.0
2017-Dec-10 19:00N 37°57' W 008°52'0 0.0
2017-Dec-10 18:30N 37°57' W 008°52'0 0.0
2017-Dec-10 18:00N 37°57' W 008°52'3 6.7
2017-Dec-10 17:30N 37°55' W 008°56'510.0
2017-Dec-10 17:00N 37°53' W 009°01'510.6
2017-Dec-10 16:30N 37°51' W 009°08'3 5.5
2017-Dec-10 16:00N 37°51' W 009°11'0 0.6
2017-Dec-10 15:30N 37°51' W 009°11'1 2.6
2017-Dec-10 15:00N 37°53' W 009°12'1 2.7
2017-Dec-10 14:30N 37°54' W 009°13'1 2.6
2017-Dec-10 14:00N 37°55' W 009°13'1 2.9
2017-Dec-10 13:30N 37°57' W 009°13'1 2.2
2017-Dec-10 13:00N 37°57' W 009°12'1 2.5
2017-Dec-10 12:30N 37°56' W 009°12'1 2.5
2017-Dec-10 12:00N 37°55' W 009°12'1 2.4
2017-Dec-10 11:30N 37°54' W 009°12'1 2.4
2017-Dec-10 11:00N 37°53' W 009°12'1 2.5
2017-Dec-10 10:30N 37°51' W 009°11'1 2.6
2017-Dec-10 10:00N 37°50' W 009°11'1 2.6
2017-Dec-10 09:30N 37°49' W 009°11'1 2.5
2017-Dec-10 09:00N 37°47' W 009°11'1 2.6
2017-Dec-10 08:30N 37°46' W 009°11'1 2.6
2017-Dec-10 07:57N 37°45' W 009°11'1 2.3
2017-Dec-10 07:30N 37°44' W 009°11'1 2.4
2017-Dec-10 07:00N 37°44' W 009°09'2 3.7
2017-Dec-10 06:26N 37°46' W 009°08'1 1.4
2017-Dec-10 05:56N 37°47' W 009°09'1 2.4
2017-Dec-10 05:30N 37°48' W 009°09'1 2.4
2017-Dec-10 05:00N 37°49' W 009°09'1 2.5
2017-Dec-10 04:30N 37°50' W 009°09'1 2.6
2017-Dec-10 04:00N 37°51' W 009°10'1 2.6
2017-Dec-10 03:31N 37°53' W 009°10'1 2.6
2017-Dec-10 03:00N 37°54' W 009°11'2 3.2
2017-Dec-10 02:30N 37°55' W 009°11'1 1.6
2017-Dec-10 02:00N 37°55' W 009°10'1 2.5
2017-Dec-10 01:30N 37°54' W 009°10'1 2.5
2017-Dec-10 01:00N 37°52' W 009°10'1 2.5
2017-Dec-10 00:30N 37°51' W 009°10'1 2.5
2017-Dec-10 00:00N 37°50' W 009°09'1 2.5
2017-Dec-09 23:30N 37°49' W 009°09'1 2.5
2017-Dec-09 23:00N 37°48' W 009°09'1 2.4
2017-Dec-09 22:29N 37°46' W 009°09'1 2.6
2017-Dec-09 22:00N 37°45' W 009°08'2 3.3
2017-Dec-09 21:30N 37°44' W 009°08'1 0.6
2017-Dec-09 20:33N 37°44' W 009°08'0 2.6
2017-Dec-09 20:23N 37°44' W 009°08'1 2.7
2017-Dec-09 20:01N 37°45' W 009°08'2 2.7
2017-Dec-09 19:14N 37°47' W 009°09'1 2.8
2017-Dec-09 18:58N 37°48' W 009°09'1 2.8
2017-Dec-09 18:30N 37°50' W 009°09'1 2.8
2017-Dec-09 18:00N 37°51' W 009°09'1 2.8
2017-Dec-09 17:30N 37°52' W 009°10'2 3.0
2017-Dec-09 17:00N 37°54' W 009°10'2 3.4
2017-Dec-09 16:30N 37°52' W 009°11'1 2.0
2017-Dec-09 16:00N 37°51' W 009°11'1 1.7
2017-Dec-09 15:30N 37°52' W 009°12'1 2.8
2017-Dec-09 15:00N 37°53' W 009°13'1 2.7
2017-Dec-09 14:30N 37°55' W 009°13'1 2.7
2017-Dec-09 14:00N 37°56' W 009°13'2 3.2
2017-Dec-09 13:30N 37°57' W 009°13'1 1.5
2017-Dec-09 13:00N 37°57' W 009°12'1 2.5
2017-Dec-09 12:30N 37°56' W 009°12'1 2.5
2017-Dec-09 12:00N 37°55' W 009°12'1 2.5
2017-Dec-09 11:30N 37°54' W 009°12'1 2.5
2017-Dec-09 11:00N 37°53' W 009°12'1 2.5
2017-Dec-09 10:30N 37°51' W 009°11'1 2.5
2017-Dec-09 10:00N 37°50' W 009°11'1 2.5
2017-Dec-09 09:30N 37°49' W 009°11'1 2.5
2017-Dec-09 09:00N 37°48' W 009°11'1 2.5
2017-Dec-09 08:30N 37°46' W 009°11'1 2.6
2017-Dec-09 07:58N 37°45' W 009°11'1 2.6
2017-Dec-09 07:30N 37°44' W 009°11'2 3.5
2017-Dec-09 07:00N 37°42' W 009°10'4 1.5
2017-Dec-09 04:19N 37°46' W 009°08'2 2.5
2017-Dec-09 03:33N 37°47' W 009°09'0 2.5
2017-Dec-09 03:30N 37°47' W 009°09'1 2.5
2017-Dec-09 03:00N 37°49' W 009°09'1 2.9
2017-Dec-09 02:30N 37°50' W 009°09'1 2.8
2017-Dec-09 01:59N 37°52' W 009°10'1 2.7
2017-Dec-09 01:30N 37°53' W 009°10'2 3.2
2017-Dec-09 01:00N 37°54' W 009°10'1 1.5
2017-Dec-09 00:30N 37°54' W 009°10'0 0.7
2017-Dec-09 00:00N 37°53' W 009°10'1 2.6
2017-Dec-08 23:30N 37°52' W 009°10'1 2.5
2017-Dec-08 23:00N 37°51' W 009°10'1 2.5
2017-Dec-08 22:30N 37°50' W 009°09'1 2.5
2017-Dec-08 22:00N 37°48' W 009°09'1 2.5
2017-Dec-08 21:30N 37°47' W 009°09'1 2.6
2017-Dec-08 21:00N 37°46' W 009°08'1 2.6
2017-Dec-08 20:29N 37°45' W 009°08'0 0.1
2017-Dec-08 15:52N 37°45' W 009°08'2 3.3
2017-Dec-08 15:11N 37°47' W 009°09'1 4.1
2017-Dec-08 15:00N 37°48' W 009°10'1 2.9
2017-Dec-08 14:30N 37°49' W 009°11'1 1.9
2017-Dec-08 14:00N 37°50' W 009°11'1 2.7
2017-Dec-08 13:29N 37°51' W 009°11'1 2.8
2017-Dec-08 13:00N 37°53' W 009°12'1 2.8
2017-Dec-08 12:30N 37°54' W 009°12'1 2.7
2017-Dec-08 12:00N 37°55' W 009°12'1 2.7
2017-Dec-08 11:30N 37°57' W 009°12'2 3.8
2017-Dec-08 11:00N 37°58' W 009°12'1 1.5
2017-Dec-08 10:30N 37°58' W 009°11'1 2.8
2017-Dec-08 10:00N 37°56' W 009°12'1 2.8
2017-Dec-08 09:30N 37°55' W 009°12'1 2.8
2017-Dec-08 09:00N 37°54' W 009°12'1 2.7
2017-Dec-08 08:30N 37°52' W 009°12'1 2.8
2017-Dec-08 08:00N 37°51' W 009°11'1 2.9
2017-Dec-08 07:30N 37°49' W 009°11'1 2.9
2017-Dec-08 07:00N 37°48' W 009°11'2 3.6
2017-Dec-08 06:30N 37°46' W 009°11'2 4.6
2017-Dec-08 06:00N 37°46' W 009°08'0 0.5
2017-Dec-08 05:30N 37°46' W 009°08'1 2.6
2017-Dec-08 05:00N 37°45' W 009°08'1 2.6
2017-Dec-08 04:27N 37°43' W 009°09'2 0.2
2017-Dec-07 18:12N 37°45' W 009°08'2 2.7
2017-Dec-07 17:27N 37°47' W 009°09'1 2.6
2017-Dec-07 17:00N 37°48' W 009°09'1 2.6
2017-Dec-07 16:30N 37°50' W 009°09'2 4.3
2017-Dec-07 15:59N 37°51' W 009°11'0 0.5
2017-Dec-07 15:30N 37°52' W 009°11'1 2.7
2017-Dec-07 15:00N 37°53' W 009°12'1 2.6
2017-Dec-07 14:30N 37°54' W 009°12'1 2.6
2017-Dec-07 13:59N 37°56' W 009°13'1 2.7
2017-Dec-07 13:31N 37°57' W 009°12'1 1.2
2017-Dec-07 13:00N 37°57' W 009°12'1 2.8
2017-Dec-07 12:30N 37°56' W 009°12'1 2.6
2017-Dec-07 12:00N 37°55' W 009°12'1 2.7
2017-Dec-07 11:30N 37°53' W 009°12'1 2.6
2017-Dec-07 11:00N 37°52' W 009°12'1 2.7
2017-Dec-07 10:30N 37°51' W 009°11'1 2.5
2017-Dec-07 10:00N 37°50' W 009°11'1 2.5
2017-Dec-07 09:30N 37°48' W 009°11'1 2.7
2017-Dec-07 09:00N 37°47' W 009°11'1 2.7
2017-Dec-07 08:30N 37°46' W 009°11'1 2.7
2017-Dec-07 08:00N 37°44' W 009°11'2 3.3
2017-Dec-07 07:30N 37°43' W 009°11'4 8.7
2017-Dec-07 07:00N 37°45' W 009°07'510.2
2017-Dec-07 06:30N 37°49' W 009°02'510.1
2017-Dec-07 06:00N 37°52' W 008°57'5 9.4
2017-Dec-07 05:30N 37°56' W 008°53'2 3.2
2017-Dec-07 05:00N 37°57' W 008°52'0 0.0
2017-Dec-07 04:30N 37°57' W 008°52'0 0.0
2017-Dec-07 04:00N 37°57' W 008°52'0 0.0
2017-Dec-07 03:30N 37°57' W 008°52'0 0.0
2017-Dec-07 03:01N 37°57' W 008°52'0 0.0
2017-Dec-07 02:30N 37°57' W 008°52'0 0.0
2017-Dec-07 02:00N 37°57' W 008°52'0 0.0
2017-Dec-07 01:30N 37°57' W 008°52'0 0.0
2017-Dec-07 01:00N 37°57' W 008°52'0 0.0
2017-Dec-07 00:30N 37°57' W 008°52'0 0.0
2017-Dec-07 00:00N 37°57' W 008°52'0 0.0
2017-Dec-06 23:30N 37°57' W 008°52'0 0.0
2017-Dec-06 23:00N 37°57' W 008°52'0 0.0
2017-Dec-06 22:30N 37°57' W 008°52'0 0.0
2017-Dec-06 22:00N 37°57' W 008°52'0 0.0
2017-Dec-06 21:30N 37°57' W 008°52'0 0.0
2017-Dec-06 21:00N 37°57' W 008°52'  
2017-Dec-04 10:25N 37°48' W 009°11'1 2.6
2017-Dec-04 10:00N 37°49' W 009°11'1 2.7
2017-Dec-04 09:30N 37°50' W 009°11'1 2.8
2017-Dec-04 09:00N 37°51' W 009°11'1 2.8
2017-Dec-04 08:30N 37°53' W 009°12'1 2.9
2017-Dec-04 08:00N 37°54' W 009°12'1 2.8
2017-Dec-04 07:29N 37°56' W 009°12'1 2.8
2017-Dec-04 07:00N 37°57' W 009°12'1 2.9
2017-Dec-04 06:30N 37°58' W 009°11'510.8
2017-Dec-04 06:00N 37°57' W 009°05'510.6
2017-Dec-04 05:30N 37°56' W 008°58'5 9.1
2017-Dec-04 05:00N 37°56' W 008°53'1 1.5
2017-Dec-04 04:30N 37°57' W 008°52'0 0.0
2017-Dec-04 04:00N 37°57' W 008°52'0 0.0
2017-Dec-04 03:30N 37°57' W 008°52'0 0.0
2017-Dec-04 03:00N 37°57' W 008°52'0 0.0
2017-Dec-04 02:30N 37°57' W 008°52'0 0.0
2017-Dec-04 02:00N 37°57' W 008°52'0 0.0
2017-Dec-04 01:30N 37°57' W 008°52'0 0.0
2017-Dec-04 01:00N 37°57' W 008°52'0 0.0
2017-Dec-04 00:30N 37°57' W 008°52'0 0.0
2017-Dec-04 00:00N 37°57' W 008°52'0 0.0
2017-Dec-03 23:30N 37°57' W 008°52'0 0.0
2017-Dec-03 23:00N 37°57' W 008°52'0 0.0
2017-Dec-03 22:30N 37°57' W 008°52'0 0.0
2017-Dec-03 22:00N 37°57' W 008°52'0 0.0
2017-Dec-03 21:30N 37°57' W 008°52'0 0.0
2017-Dec-03 21:00N 37°57' W 008°52'0 0.2
2017-Dec-03 20:30N 37°57' W 008°52'0 0.0
2017-Dec-03 20:00N 37°57' W 008°52'2 3.8
2017-Dec-03 19:30N 37°56' W 008°54'510.6
2017-Dec-03 19:00N 37°57' W 009°01'5 9.9
2017-Dec-03 18:30N 37°58' W 009°07'3 6.3
2017-Dec-03 18:00N 37°57' W 009°11'0 0.3
2017-Dec-03 17:30N 37°57' W 009°11'1 2.7
2017-Dec-03 17:00N 37°56' W 009°11'1 2.8
2017-Dec-03 16:31N 37°55' W 009°11'1 2.8
2017-Dec-03 16:00N 37°53' W 009°12'1 2.8
2017-Dec-03 15:30N 37°52' W 009°11'1 3.0
2017-Dec-03 15:00N 37°50' W 009°11'1 2.9
2017-Dec-03 14:30N 37°49' W 009°11'3 5.0
2017-Dec-03 14:00N 37°48' W 009°14'1 2.1
2017-Dec-03 13:30N 37°48' W 009°15'0 0.8
2017-Dec-03 13:00N 37°48' W 009°15'1 2.6
2017-Dec-03 12:30N 37°47' W 009°15'1 2.8
2017-Dec-03 12:00N 37°45' W 009°15'3 0.3
2017-Dec-03 00:06N 37°46' W 009°11'0 2.5
2017-Dec-02 23:56N 37°47' W 009°11'2 3.9
2017-Dec-02 23:30N 37°48' W 009°12'4 8.3
2017-Dec-02 23:00N 37°50' W 009°07'510.3
2017-Dec-02 22:30N 37°52' W 009°01'510.3
2017-Dec-02 22:00N 37°54' W 008°55'4 7.6
2017-Dec-02 21:30N 37°57' W 008°52'0 0.0
2017-Dec-02 21:00N 37°57' W 008°52'0 0.0
2017-Dec-02 20:30N 37°57' W 008°52'0 0.0
2017-Dec-02 20:00N 37°57' W 008°52'0 0.0
2017-Dec-02 19:30N 37°57' W 008°52'0 0.0
2017-Dec-02 19:00N 37°57' W 008°52'0 0.0
2017-Dec-02 18:30N 37°57' W 008°52'0 0.0
2017-Dec-02 18:01N 37°57' W 008°52'0 0.0
2017-Dec-02 17:30N 37°57' W 008°52'4 7.3
2017-Dec-02 17:00N 37°56' W 008°57'510.1
2017-Dec-02 16:30N 37°56' W 009°03'5 9.1
2017-Dec-02 16:00N 37°56' W 009°09'5 9.5
2017-Dec-02 15:30N 37°54' W 009°14'1 2.2
2017-Dec-02 15:00N 37°54' W 009°16'0 1.0
2017-Dec-02 14:30N 37°53' W 009°16'1 2.8
2017-Dec-02 14:00N 37°52' W 009°16'1 2.9
2017-Dec-02 13:30N 37°50' W 009°16'1 2.9
2017-Dec-02 13:00N 37°49' W 009°16'1 2.8
2017-Dec-02 12:30N 37°48' W 009°15'1 2.7
2017-Dec-02 12:00N 37°46' W 009°15'1 2.8
2017-Dec-02 11:30N 37°45' W 009°15'4 0.8
2017-Dec-02 06:50N 37°42' W 009°11'0 0.4
2017-Dec-02 06:30N 37°42' W 009°11'5 0.3
2017-Dec-01 13:52N 37°46' W 009°15'2 3.3
2017-Dec-01 13:23N 37°48' W 009°15'0 0.7
2017-Dec-01 13:00N 37°47' W 009°15'0 0.6
2017-Dec-01 12:30N 37°47' W 009°15'1 2.7
2017-Dec-01 12:01N 37°46' W 009°15'  
Track history (hours):
 
Tides and Currents Weather Stations Pressure Air Temp Water Temp Dewpoint Dewpoint Depression Visibility Wind Speed Wind Dir Waves Ship Positions

Pescal

Last reported at 2017-Dec-10 21:06 UTC. Time now 2017-Dec-15 00:45 UTC.
Position N 37°57' W 008°52'.

Length 23 m.

MMSI: 263514000.

Date/timePositionNaut miles runAvg speedWind from/ knotsBaromVisibWave heightAir tempDewpointWater temp
2017-Dec-10 21:06N 37°57' W 008°52'0 0.0
2017-Dec-10 21:00N 37°57' W 008°52'0 0.2
2017-Dec-10 20:31N 37°57' W 008°52'0 0.0
2017-Dec-10 20:00N 37°57' W 008°52'0 0.0
2017-Dec-10 19:30N 37°57' W 008°52'0 0.0
2017-Dec-10 19:00N 37°57' W 008°52'0 0.0
2017-Dec-10 18:30N 37°57' W 008°52'0 0.0
2017-Dec-10 18:00N 37°57' W 008°52'3 6.7
2017-Dec-10 17:30N 37°55' W 008°56'510.0
2017-Dec-10 17:00N 37°53' W 009°01'510.6
2017-Dec-10 16:30N 37°51' W 009°08'3 5.5
2017-Dec-10 16:00N 37°51' W 009°11'0 0.6
2017-Dec-10 15:30N 37°51' W 009°11'1 2.6
2017-Dec-10 15:00N 37°53' W 009°12'1 2.7
2017-Dec-10 14:30N 37°54' W 009°13'1 2.6
2017-Dec-10 14:00N 37°55' W 009°13'1 2.9
2017-Dec-10 13:30N 37°57' W 009°13'1 2.2
2017-Dec-10 13:00N 37°57' W 009°12'1 2.5
2017-Dec-10 12:30N 37°56' W 009°12'1 2.5
2017-Dec-10 12:00N 37°55' W 009°12'1 2.4
2017-Dec-10 11:30N 37°54' W 009°12'1 2.4
2017-Dec-10 11:00N 37°53' W 009°12'1 2.5
2017-Dec-10 10:30N 37°51' W 009°11'1 2.6
2017-Dec-10 10:00N 37°50' W 009°11'1 2.6
2017-Dec-10 09:30N 37°49' W 009°11'1 2.5
2017-Dec-10 09:00N 37°47' W 009°11'1 2.6
2017-Dec-10 08:30N 37°46' W 009°11'1 2.6
2017-Dec-10 07:57N 37°45' W 009°11'1 2.3
2017-Dec-10 07:30N 37°44' W 009°11'1 2.4
2017-Dec-10 07:00N 37°44' W 009°09'2 3.7
2017-Dec-10 06:26N 37°46' W 009°08'1 1.4
2017-Dec-10 05:56N 37°47' W 009°09'1 2.4
2017-Dec-10 05:30N 37°48' W 009°09'1 2.4
2017-Dec-10 05:00N 37°49' W 009°09'1 2.5
2017-Dec-10 04:30N 37°50' W 009°09'1 2.6
2017-Dec-10 04:00N 37°51' W 009°10'1 2.6
2017-Dec-10 03:31N 37°53' W 009°10'1 2.6
2017-Dec-10 03:00N 37°54' W 009°11'2 3.2
2017-Dec-10 02:30N 37°55' W 009°11'1 1.6
2017-Dec-10 02:00N 37°55' W 009°10'1 2.5
2017-Dec-10 01:30N 37°54' W 009°10'1 2.5
2017-Dec-10 01:00N 37°52' W 009°10'1 2.5
2017-Dec-10 00:30N 37°51' W 009°10'1 2.5
2017-Dec-10 00:00N 37°50' W 009°09'1 2.5
2017-Dec-09 23:30N 37°49' W 009°09'1 2.5
2017-Dec-09 23:00N 37°48' W 009°09'1 2.4
2017-Dec-09 22:29N 37°46' W 009°09'1 2.6
2017-Dec-09 22:00N 37°45' W 009°08'2 3.3
2017-Dec-09 21:30N 37°44' W 009°08'1 0.6
2017-Dec-09 20:33N 37°44' W 009°08'0 2.6
2017-Dec-09 20:23N 37°44' W 009°08'1 2.7
2017-Dec-09 20:01N 37°45' W 009°08'2 2.7
2017-Dec-09 19:14N 37°47' W 009°09'1 2.8
2017-Dec-09 18:58N 37°48' W 009°09'1 2.8
2017-Dec-09 18:30N 37°50' W 009°09'1 2.8
2017-Dec-09 18:00N 37°51' W 009°09'1 2.8
2017-Dec-09 17:30N 37°52' W 009°10'2 3.0
2017-Dec-09 17:00N 37°54' W 009°10'2 3.4
2017-Dec-09 16:30N 37°52' W 009°11'1 2.0
2017-Dec-09 16:00N 37°51' W 009°11'1 1.7
2017-Dec-09 15:30N 37°52' W 009°12'1 2.8
2017-Dec-09 15:00N 37°53' W 009°13'1 2.7
2017-Dec-09 14:30N 37°55' W 009°13'1 2.7
2017-Dec-09 14:00N 37°56' W 009°13'2 3.2
2017-Dec-09 13:30N 37°57' W 009°13'1 1.5
2017-Dec-09 13:00N 37°57' W 009°12'1 2.5
2017-Dec-09 12:30N 37°56' W 009°12'1 2.5
2017-Dec-09 12:00N 37°55' W 009°12'1 2.5
2017-Dec-09 11:30N 37°54' W 009°12'1 2.5
2017-Dec-09 11:00N 37°53' W 009°12'1 2.5
2017-Dec-09 10:30N 37°51' W 009°11'1 2.5
2017-Dec-09 10:00N 37°50' W 009°11'1 2.5
2017-Dec-09 09:30N 37°49' W 009°11'1 2.5
2017-Dec-09 09:00N 37°48' W 009°11'1 2.5
2017-Dec-09 08:30N 37°46' W 009°11'1 2.6
2017-Dec-09 07:58N 37°45' W 009°11'1 2.6
2017-Dec-09 07:30N 37°44' W 009°11'2 3.5
2017-Dec-09 07:00N 37°42' W 009°10'4 1.5
2017-Dec-09 04:19N 37°46' W 009°08'2 2.5
2017-Dec-09 03:33N 37°47' W 009°09'0 2.5
2017-Dec-09 03:30N 37°47' W 009°09'1 2.5
2017-Dec-09 03:00N 37°49' W 009°09'1 2.9
2017-Dec-09 02:30N 37°50' W 009°09'1 2.8
2017-Dec-09 01:59N 37°52' W 009°10'1 2.7
2017-Dec-09 01:30N 37°53' W 009°10'2 3.2
2017-Dec-09 01:00N 37°54' W 009°10'1 1.5
2017-Dec-09 00:30N 37°54' W 009°10'0 0.7
2017-Dec-09 00:00N 37°53' W 009°10'1 2.6
2017-Dec-08 23:30N 37°52' W 009°10'1 2.5
2017-Dec-08 23:00N 37°51' W 009°10'1 2.5
2017-Dec-08 22:30N 37°50' W 009°09'1 2.5
2017-Dec-08 22:00N 37°48' W 009°09'1 2.5
2017-Dec-08 21:30N 37°47' W 009°09'1 2.6
2017-Dec-08 21:00N 37°46' W 009°08'1 2.6
2017-Dec-08 20:29N 37°45' W 009°08'0 0.1
2017-Dec-08 15:52N 37°45' W 009°08'2 3.3
2017-Dec-08 15:11N 37°47' W 009°09'1 4.1
2017-Dec-08 15:00N 37°48' W 009°10'1 2.9
2017-Dec-08 14:30N 37°49' W 009°11'1 1.9
2017-Dec-08 14:00N 37°50' W 009°11'1 2.7
2017-Dec-08 13:29N 37°51' W 009°11'1 2.8
2017-Dec-08 13:00N 37°53' W 009°12'1 2.8
2017-Dec-08 12:30N 37°54' W 009°12'1 2.7
2017-Dec-08 12:00N 37°55' W 009°12'1 2.7
2017-Dec-08 11:30N 37°57' W 009°12'2 3.8
2017-Dec-08 11:00N 37°58' W 009°12'1 1.5
2017-Dec-08 10:30N 37°58' W 009°11'1 2.8
2017-Dec-08 10:00N 37°56' W 009°12'1 2.8
2017-Dec-08 09:30N 37°55' W 009°12'1 2.8
2017-Dec-08 09:00N 37°54' W 009°12'1 2.7
2017-Dec-08 08:30N 37°52' W 009°12'1 2.8
2017-Dec-08 08:00N 37°51' W 009°11'1 2.9
2017-Dec-08 07:30N 37°49' W 009°11'1 2.9
2017-Dec-08 07:00N 37°48' W 009°11'2 3.6
2017-Dec-08 06:30N 37°46' W 009°11'2 4.6
2017-Dec-08 06:00N 37°46' W 009°08'0 0.5
2017-Dec-08 05:30N 37°46' W 009°08'1 2.6
2017-Dec-08 05:00N 37°45' W 009°08'1 2.6
2017-Dec-08 04:27N 37°43' W 009°09'2 0.2
2017-Dec-07 18:12N 37°45' W 009°08'2 2.7
2017-Dec-07 17:27N 37°47' W 009°09'1 2.6
2017-Dec-07 17:00N 37°48' W 009°09'1 2.6
2017-Dec-07 16:30N 37°50' W 009°09'2 4.3
2017-Dec-07 15:59N 37°51' W 009°11'0 0.5
2017-Dec-07 15:30N 37°52' W 009°11'1 2.7
2017-Dec-07 15:00N 37°53' W 009°12'1 2.6
2017-Dec-07 14:30N 37°54' W 009°12'1 2.6
2017-Dec-07 13:59N 37°56' W 009°13'1 2.7
2017-Dec-07 13:31N 37°57' W 009°12'1 1.2
2017-Dec-07 13:00N 37°57' W 009°12'1 2.8
2017-Dec-07 12:30N 37°56' W 009°12'1 2.6
2017-Dec-07 12:00N 37°55' W 009°12'1 2.7
2017-Dec-07 11:30N 37°53' W 009°12'1 2.6
2017-Dec-07 11:00N 37°52' W 009°12'1 2.7
2017-Dec-07 10:30N 37°51' W 009°11'1 2.5
2017-Dec-07 10:00N 37°50' W 009°11'1 2.5
2017-Dec-07 09:30N 37°48' W 009°11'1 2.7
2017-Dec-07 09:00N 37°47' W 009°11'1 2.7
2017-Dec-07 08:30N 37°46' W 009°11'1 2.7
2017-Dec-07 08:00N 37°44' W 009°11'2 3.3
2017-Dec-07 07:30N 37°43' W 009°11'4 8.7
2017-Dec-07 07:00N 37°45' W 009°07'510.2
2017-Dec-07 06:30N 37°49' W 009°02'510.1
2017-Dec-07 06:00N 37°52' W 008°57'5 9.4
2017-Dec-07 05:30N 37°56' W 008°53'2 3.2
2017-Dec-07 05:00N 37°57' W 008°52'0 0.0
2017-Dec-07 04:30N 37°57' W 008°52'0 0.0
2017-Dec-07 04:00N 37°57' W 008°52'0 0.0
2017-Dec-07 03:30N 37°57' W 008°52'0 0.0
2017-Dec-07 03:01N 37°57' W 008°52'0 0.0
2017-Dec-07 02:30N 37°57' W 008°52'0 0.0
2017-Dec-07 02:00N 37°57' W 008°52'0 0.0
2017-Dec-07 01:30N 37°57' W 008°52'0 0.0
2017-Dec-07 01:00N 37°57' W 008°52'0 0.0
2017-Dec-07 00:30N 37°57' W 008°52'0 0.0
2017-Dec-07 00:00N 37°57' W 008°52'0 0.0
2017-Dec-06 23:30N 37°57' W 008°52'0 0.0
2017-Dec-06 23:00N 37°57' W 008°52'0 0.0
2017-Dec-06 22:30N 37°57' W 008°52'0 0.0
2017-Dec-06 22:00N 37°57' W 008°52'0 0.0
2017-Dec-06 21:30N 37°57' W 008°52'0 0.0
2017-Dec-06 21:00N 37°57' W 008°52'  
2017-Dec-04 10:25N 37°48' W 009°11'1 2.6
2017-Dec-04 10:00N 37°49' W 009°11'1 2.7
2017-Dec-04 09:30N 37°50' W 009°11'1 2.8
2017-Dec-04 09:00N 37°51' W 009°11'1 2.8
2017-Dec-04 08:30N 37°53' W 009°12'1 2.9
2017-Dec-04 08:00N 37°54' W 009°12'1 2.8
2017-Dec-04 07:29N 37°56' W 009°12'1 2.8
2017-Dec-04 07:00N 37°57' W 009°12'1 2.9
2017-Dec-04 06:30N 37°58' W 009°11'510.8
2017-Dec-04 06:00N 37°57' W 009°05'510.6
2017-Dec-04 05:30N 37°56' W 008°58'5 9.1
2017-Dec-04 05:00N 37°56' W 008°53'1 1.5
2017-Dec-04 04:30N 37°57' W 008°52'0 0.0
2017-Dec-04 04:00N 37°57' W 008°52'0 0.0
2017-Dec-04 03:30N 37°57' W 008°52'0 0.0
2017-Dec-04 03:00N 37°57' W 008°52'0 0.0
2017-Dec-04 02:30N 37°57' W 008°52'0 0.0
2017-Dec-04 02:00N 37°57' W 008°52'0 0.0
2017-Dec-04 01:30N 37°57' W 008°52'0 0.0
2017-Dec-04 01:00N 37°57' W 008°52'0 0.0
2017-Dec-04 00:30N 37°57' W 008°52'0 0.0
2017-Dec-04 00:00N 37°57' W 008°52'0 0.0
2017-Dec-03 23:30N 37°57' W 008°52'0 0.0
2017-Dec-03 23:00N 37°57' W 008°52'0 0.0
2017-Dec-03 22:30N 37°57' W 008°52'0 0.0
2017-Dec-03 22:00N 37°57' W 008°52'0 0.0
2017-Dec-03 21:30N 37°57' W 008°52'0 0.0
2017-Dec-03 21:00N 37°57' W 008°52'0 0.2
2017-Dec-03 20:30N 37°57' W 008°52'0 0.0
2017-Dec-03 20:00N 37°57' W 008°52'2 3.8
2017-Dec-03 19:30N 37°56' W 008°54'510.6
2017-Dec-03 19:00N 37°57' W 009°01'5 9.9
2017-Dec-03 18:30N 37°58' W 009°07'3 6.3
2017-Dec-03 18:00N 37°57' W 009°11'0 0.3
2017-Dec-03 17:30N 37°57' W 009°11'1 2.7
2017-Dec-03 17:00N 37°56' W 009°11'1 2.8
2017-Dec-03 16:31N 37°55' W 009°11'1 2.8
2017-Dec-03 16:00N 37°53' W 009°12'1 2.8
2017-Dec-03 15:30N 37°52' W 009°11'1 3.0
2017-Dec-03 15:00N 37°50' W 009°11'1 2.9
2017-Dec-03 14:30N 37°49' W 009°11'3 5.0
2017-Dec-03 14:00N 37°48' W 009°14'1 2.1
2017-Dec-03 13:30N 37°48' W 009°15'0 0.8
2017-Dec-03 13:00N 37°48' W 009°15'1 2.6
2017-Dec-03 12:30N 37°47' W 009°15'1 2.8
2017-Dec-03 12:00N 37°45' W 009°15'3 0.3
2017-Dec-03 00:06N 37°46' W 009°11'0 2.5
2017-Dec-02 23:56N 37°47' W 009°11'2 3.9
2017-Dec-02 23:30N 37°48' W 009°12'4 8.3
2017-Dec-02 23:00N 37°50' W 009°07'510.3
2017-Dec-02 22:30N 37°52' W 009°01'510.3
2017-Dec-02 22:00N 37°54' W 008°55'4 7.6
2017-Dec-02 21:30N 37°57' W 008°52'0 0.0
2017-Dec-02 21:00N 37°57' W 008°52'0 0.0
2017-Dec-02 20:30N 37°57' W 008°52'0 0.0
2017-Dec-02 20:00N 37°57' W 008°52'0 0.0
2017-Dec-02 19:30N 37°57' W 008°52'0 0.0
2017-Dec-02 19:00N 37°57' W 008°52'0 0.0
2017-Dec-02 18:30N 37°57' W 008°52'0 0.0
2017-Dec-02 18:01N 37°57' W 008°52'0 0.0
2017-Dec-02 17:30N 37°57' W 008°52'4 7.3
2017-Dec-02 17:00N 37°56' W 008°57'510.1
2017-Dec-02 16:30N 37°56' W 009°03'5 9.1
2017-Dec-02 16:00N 37°56' W 009°09'5 9.5
2017-Dec-02 15:30N 37°54' W 009°14'1 2.2
2017-Dec-02 15:00N 37°54' W 009°16'0 1.0
2017-Dec-02 14:30N 37°53' W 009°16'1 2.8
2017-Dec-02 14:00N 37°52' W 009°16'1 2.9
2017-Dec-02 13:30N 37°50' W 009°16'1 2.9
2017-Dec-02 13:00N 37°49' W 009°16'1 2.8
2017-Dec-02 12:30N 37°48' W 009°15'1 2.7
2017-Dec-02 12:00N 37°46' W 009°15'1 2.8
2017-Dec-02 11:30N 37°45' W 009°15'4 0.8
2017-Dec-02 06:50N 37°42' W 009°11'0 0.4
2017-Dec-02 06:30N 37°42' W 009°11'5 0.3
2017-Dec-01 13:52N 37°46' W 009°15'2 3.3
2017-Dec-01 13:23N 37°48' W 009°15'0 0.7
2017-Dec-01 13:00N 37°47' W 009°15'0 0.6
2017-Dec-01 12:30N 37°47' W 009°15'1 2.7
2017-Dec-01 12:01N 37°46' W 009°15'  

Dump ship's entire track history